Terminal Aerodrome Forecast
Issued by NWS Brownsville, TX

Home | Current Version | Previous Version | Text Only | Print | Product List | Glossary On
Versions: 1 2 3 4 5 6 7 8 9 10 11 12 13 14 15 16 17 18 19 20 21 22 23 24 25
000
FTUS44 KBRO 241120
TAFHRL
TAF
KHRL 241120Z 2412/2512 17012KT P6SM VCTS FEW006 BKN045CB
      TEMPO 2412/2415 P6SM SHRA SCT006 BKN025
     FM241500 16015G20KT P6SM VCSH BKN025
     FM241800 17020G25KT P6SM BKN050
     FM250600 15015KT P6SM BKN025=

USA.gov is the U.S. government's official web portal to all federal, state and local government web resources and services.